Time;durP1;ratioP1;P1;durP2;ratioP2;P2;SDS_P1;SDS_P2;PMS_P1;PMS_P2;Temp;Humidity;BMP_temperature;BMP_pressure;BME280_temperature;BME280_humidity;BME280_pressure;Samples;Min_cycle;Max_cycle;Signal;HPM_P1;HPM_P2
2023/06/25 00:02:23;;;;;;;0.50;0.20;;;16.70;94.60;;;;;;5115668;28;20202;-90
2023/06/25 00:04:54;;;;;;;0.40;0.20;;;16.80;94.50;;;;;;5116782;28;20214;-89
2023/06/25 00:07:25;;;;;;;0.40;0.20;;;16.90;94.30;;;;;;5119377;28;20199;-90
2023/06/25 00:09:59;;;;;;;0.90;0.20;;;17.00;93.60;;;;;;5115459;28;20281;-90
2023/06/25 00:12:30;;;;;;;0.30;0.30;;;17.00;93.90;;;;;;5115872;28;20667;-90
2023/06/25 00:15:02;;;;;;;0.30;0.30;;;17.00;93.50;;;;;;5115879;28;20556;-89
2023/06/25 00:17:32;;;;;;;0.77;0.32;;;17.10;93.20;;;;;;5115705;28;20198;-90
2023/06/25 00:20:05;;;;;;;0.55;0.25;;;17.10;92.80;;;;;;5118537;28;20199;-90
2023/06/25 00:22:37;;;;;;;0.30;0.30;;;17.20;93.10;;;;;;5117357;28;20199;-90
2023/06/25 00:25:12;;;;;;;0.40;0.30;;;17.30;92.80;;;;;;5097810;28;20195;-89
2023/06/25 00:27:47;;;;;;;0.80;0.40;;;17.40;92.70;;;;;;5114030;28;20709;-90
2023/06/25 00:30:18;;;;;;;0.30;0.30;;;17.60;92.80;;;;;;5115588;28;20202;-90
2023/06/25 00:32:54;;;;;;;0.57;0.20;;;17.70;92.30;;;;;;5115550;28;20209;-90
2023/06/25 00:35:29;;;;;;;0.50;0.30;;;17.80;92.10;;;;;;5115070;28;20186;-89
2023/06/25 00:38:01;;;;;;;0.75;0.30;;;17.90;92.10;;;;;;5115131;28;20273;-91
2023/06/25 00:40:33;;;;;;;0.43;0.35;;;18.00;91.80;;;;;;5097037;28;20230;-90
2023/06/25 00:43:06;;;;;;;0.70;0.30;;;18.00;91.40;;;;;;5114690;28;20194;-90
2023/06/25 00:45:39;;;;;;;0.65;0.38;;;18.00;91.20;;;;;;5100333;28;20223;-91
2023/06/25 00:48:10;;;;;;;1.92;0.20;;;18.10;91.40;;;;;;5093554;28;20563;-91
2023/06/25 00:50:43;;;;;;;0.30;0.20;;;18.10;91.70;;;;;;5111346;28;20202;-92
2023/06/25 00:53:13;;;;;;;4.05;0.40;;;18.20;91.70;;;;;;5114872;28;20207;-91
2023/06/25 00:55:51;;;;;;;0.65;0.30;;;18.30;90.50;;;;;;5114501;28;20598;-91
2023/06/25 00:58:22;;;;;;;0.20;0.20;;;18.40;89.70;;;;;;5114827;28;20555;-91
2023/06/25 01:00:59;;;;;;;0.85;0.40;;;18.40;89.80;;;;;;5114967;28;20683;-91
2023/06/25 01:03:36;;;;;;;1.13;0.40;;;18.50;89.90;;;;;;5097551;28;20222;-91
2023/06/25 01:06:12;;;;;;;0.63;0.40;;;18.50;89.60;;;;;;5094186;28;20276;-91
2023/06/25 01:08:49;;;;;;;0.50;0.35;;;18.70;86.00;;;;;;5100103;28;20221;-91
2023/06/25 01:11:23;;;;;;;2.92;0.30;;;18.80;85.90;;;;;;5114463;28;20544;-92
2023/06/25 01:13:56;;;;;;;1.15;0.30;;;19.00;80.80;;;;;;5096659;28;20656;-92
2023/06/25 01:16:26;;;;;;;2.15;0.40;;;19.10;77.00;;;;;;5114879;28;20301;-92
2023/06/25 01:19:02;;;;;;;0.22;0.22;;;19.10;73.40;;;;;;5110545;28;20214;-91
2023/06/25 01:21:35;;;;;;;0.52;0.40;;;19.20;68.80;;;;;;5093582;28;20672;-92
2023/06/25 01:24:12;;;;;;;1.08;0.45;;;19.30;68.90;;;;;;5076434;28;20282;-91
2023/06/25 01:26:44;;;;;;;2.60;0.50;;;19.40;68.50;;;;;;5109028;28;20205;-92
2023/06/25 01:29:15;;;;;;;1.23;0.50;;;19.40;66.30;;;;;;5138014;28;20573;-92
2023/06/25 01:31:46;;;;;;;0.30;0.30;;;19.50;66.40;;;;;;5126910;28;20248;-92
2023/06/25 01:34:19;;;;;;;0.25;0.20;;;19.50;64.40;;;;;;5115664;28;20271;-91
2023/06/25 01:36:52;;;;;;;0.55;0.40;;;19.50;63.70;;;;;;5115476;28;20272;-92
2023/06/25 01:39:25;;;;;;;1.40;0.30;;;19.60;65.80;;;;;;5114115;28;20199;-92
2023/06/25 01:41:57;;;;;;;1.00;0.40;;;19.70;65.50;;;;;;5114227;28;20716;-92
2023/06/25 01:44:32;;;;;;;0.65;0.30;;;19.70;63.10;;;;;;5114031;28;20233;-91
2023/06/25 01:47:03;;;;;;;0.70;0.38;;;19.70;61.20;;;;;;5113970;28;20212;-92
2023/06/25 01:49:35;;;;;;;0.28;0.20;;;19.70;63.20;;;;;;5095743;28;20199;-91
2023/06/25 01:52:07;;;;;;;1.02;0.30;;;19.80;61.80;;;;;;5093360;28;20680;-91
2023/06/25 01:54:42;;;;;;;0.65;0.20;;;19.80;59.80;;;;;;5092242;28;20566;-91
2023/06/25 01:57:13;;;;;;;2.05;0.25;;;19.90;61.90;;;;;;5092431;28;20226;-92
2023/06/25 01:59:45;;;;;;;2.20;0.35;;;20.00;62.80;;;;;;5098074;28;20206;-92
2023/06/25 02:02:17;;;;;;;1.15;0.30;;;20.00;61.20;;;;;;5112646;28;20213;-92
2023/06/25 02:04:48;;;;;;;1.50;0.30;;;20.00;59.60;;;;;;5113580;28;20196;-92
2023/06/25 02:07:20;;;;;;;0.90;0.30;;;20.00;59.70;;;;;;5112704;28;20204;-92
2023/06/25 02:09:55;;;;;;;0.22;0.22;;;20.10;58.90;;;;;;5121359;28;20194;-92
2023/06/25 02:12:26;;;;;;;0.98;0.40;;;20.00;58.60;;;;;;5123084;28;20194;-92
2023/06/25 02:14:58;;;;;;;0.90;0.38;;;20.10;59.80;;;;;;5113442;28;20661;-92
2023/06/25 02:17:29;;;;;;;1.63;0.30;;;20.20;59.00;;;;;;5112718;28;20257;-92
2023/06/25 02:20:00;;;;;;;0.75;0.35;;;20.20;57.90;;;;;;5113075;28;20281;-92
2023/06/25 02:22:31;;;;;;;1.40;0.35;;;20.20;58.50;;;;;;5111772;28;20198;-93
2023/06/25 02:25:04;;;;;;;2.47;0.40;;;20.20;58.50;;;;;;5113278;28;20209;-92
2023/06/25 02:27:35;;;;;;;1.50;0.40;;;20.30;59.30;;;;;;5116731;28;20231;-92
2023/06/25 02:30:07;;;;;;;0.65;0.30;;;20.30;58.70;;;;;;5129709;28;20262;-92
2023/06/25 02:32:37;;;;;;;1.45;0.43;;;20.30;59.10;;;;;;5125542;27;20186;-92
2023/06/25 02:35:09;;;;;;;1.55;0.40;;;20.40;58.10;;;;;;5115916;27;20354;-92
2023/06/25 02:37:41;;;;;;;1.10;0.40;;;20.40;58.00;;;;;;5113641;28;20226;-90
2023/06/25 02:40:17;;;;;;;1.58;0.20;;;20.40;57.00;;;;;;5111167;28;20210;-91
2023/06/25 02:42:48;;;;;;;0.40;0.20;;;20.40;57.50;;;;;;5113044;28;20198;-92
2023/06/25 02:45:19;;;;;;;0.70;0.30;;;20.40;56.30;;;;;;5113275;28;20705;-91
2023/06/25 02:47:51;;;;;;;2.08;0.30;;;20.40;56.10;;;;;;5113102;28;20213;-90
2023/06/25 02:50:23;;;;;;;4.47;0.35;;;20.50;56.30;;;;;;5113353;28;20218;-92
2023/06/25 02:52:58;;;;;;;0.35;0.30;;;20.50;56.40;;;;;;5096702;28;20202;-92
2023/06/25 02:55:32;;;;;;;2.33;0.22;;;20.60;56.10;;;;;;5110965;28;20210;-89
2023/06/25 02:58:03;;;;;;;0.40;0.30;;;20.60;56.10;;;;;;5112087;28;20221;-88
2023/06/25 03:00:34;;;;;;;3.13;0.30;;;20.80;55.20;;;;;;5112725;28;20209;-89
2023/06/25 03:03:04;;;;;;;2.25;0.30;;;20.70;55.50;;;;;;5113254;28;20206;-89
2023/06/25 03:05:35;;;;;;;0.50;0.40;;;20.80;53.00;;;;;;5112808;28;20195;-90
2023/06/25 03:08:06;;;;;;;0.35;0.35;;;20.70;52.30;;;;;;5110726;28;20198;-89
2023/06/25 03:10:40;;;;;;;0.93;0.40;;;20.70;52.90;;;;;;5098991;28;20220;-91
2023/06/25 03:13:11;;;;;;;1.45;0.40;;;20.70;52.00;;;;;;5117227;28;20202;-92
2023/06/25 03:15:43;;;;;;;1.33;0.80;;;20.70;52.70;;;;;;5117190;28;20200;-91
2023/06/25 03:18:14;;;;;;;1.48;1.00;;;20.50;51.40;;;;;;5117538;28;20692;-92
2023/06/25 03:20:45;;;;;;;1.20;0.47;;;20.50;50.60;;;;;;5117514;28;20195;-91
2023/06/25 03:23:17;;;;;;;0.88;0.57;;;20.40;50.80;;;;;;5116490;28;20202;-90
2023/06/25 03:25:50;;;;;;;0.35;0.30;;;20.50;51.80;;;;;;5116932;28;20680;-91
2023/06/25 03:28:21;;;;;;;1.52;0.45;;;20.50;51.10;;;;;;5115941;28;20657;-91
2023/06/25 03:30:52;;;;;;;0.65;0.30;;;20.60;50.80;;;;;;5116507;28;20213;-92
2023/06/25 03:33:23;;;;;;;1.05;0.30;;;20.60;51.00;;;;;;5117620;28;20198;-90
2023/06/25 03:35:55;;;;;;;1.40;0.50;;;20.60;50.00;;;;;;5116681;28;20637;-91
2023/06/25 03:38:26;;;;;;;3.10;0.50;;;20.40;50.00;;;;;;5116626;28;20214;-91
2023/06/25 03:41:00;;;;;;;2.72;0.47;;;20.40;50.40;;;;;;5116714;28;20705;-90
2023/06/25 03:43:31;;;;;;;0.50;0.40;;;20.40;50.60;;;;;;5103182;28;20186;-90
2023/06/25 03:46:03;;;;;;;0.45;0.30;;;20.50;50.30;;;;;;5114191;28;20195;-90
2023/06/25 03:48:35;;;;;;;0.38;0.25;;;20.40;51.10;;;;;;5116212;28;20205;-90
2023/06/25 03:51:07;;;;;;;0.43;0.40;;;20.40;51.60;;;;;;5116180;28;20561;-91
2023/06/25 03:53:38;;;;;;;1.45;0.30;;;20.40;51.50;;;;;;5125391;28;20198;-91
2023/06/25 03:56:13;;;;;;;0.25;0.20;;;20.40;51.40;;;;;;5124276;28;20202;-90
2023/06/25 03:58:44;;;;;;;2.00;0.40;;;20.40;51.60;;;;;;5117229;28;20213;-92
2023/06/25 04:01:15;;;;;;;1.25;0.47;;;20.40;50.40;;;;;;5117546;28;20207;-92
2023/06/25 04:03:46;;;;;;;1.33;0.50;;;20.30;49.30;;;;;;5115834;28;20195;-92
2023/06/25 04:06:18;;;;;;;0.80;0.30;;;20.30;49.80;;;;;;5115624;28;20191;-92
2023/06/25 04:08:49;;;;;;;3.28;2.42;;;20.20;49.10;;;;;;5115386;28;20198;-91
2023/06/25 04:11:23;;;;;;;0.55;0.50;;;20.30;49.40;;;;;;5115471;28;20565;-90
2023/06/25 04:13:57;;;;;;;1.55;1.45;;;20.40;49.80;;;;;;5116058;28;20281;-91
2023/06/25 04:16:29;;;;;;;1.13;0.40;;;20.40;49.90;;;;;;5117065;28;20213;-92
2023/06/25 04:19:03;;;;;;;0.82;0.40;;;20.40;50.00;;;;;;5114506;28;20565;-91
2023/06/25 04:21:35;;;;;;;1.75;0.40;;;20.30;50.20;;;;;;5115415;28;20279;-92
2023/06/25 04:24:06;;;;;;;1.10;1.00;;;20.20;49.30;;;;;;5114847;28;20222;-86
2023/06/25 04:26:40;;;;;;;0.60;0.40;;;20.20;49.20;;;;;;5115594;28;20195;-92
2023/06/25 04:29:11;;;;;;;1.42;0.50;;;20.30;49.00;;;;;;5117151;28;20207;-92
2023/06/25 04:31:43;;;;;;;0.85;0.30;;;20.40;49.30;;;;;;5114062;28;20191;-92
2023/06/25 04:34:15;;;;;;;0.57;0.30;;;20.40;50.20;;;;;;5117346;28;20198;-92
2023/06/25 04:36:46;;;;;;;0.60;0.22;;;20.30;49.30;;;;;;5123490;28;20250;-92
2023/06/25 04:39:17;;;;;;;0.65;0.43;;;20.30;49.20;;;;;;5123019;28;20195;-92
2023/06/25 04:41:53;;;;;;;0.82;0.65;;;20.30;50.50;;;;;;5116138;28;20310;-91
2023/06/25 04:44:25;;;;;;;3.58;2.22;;;20.30;49.50;;;;;;5115627;28;20206;-91
2023/06/25 04:46:57;;;;;;;2.28;0.40;;;20.40;49.70;;;;;;5114877;28;20199;-90
2023/06/25 04:49:29;;;;;;;0.43;0.30;;;20.30;48.30;;;;;;5101971;28;20244;-92
2023/06/25 04:51:59;;;;;;;0.75;0.40;;;20.20;48.20;;;;;;5092891;28;20194;-91
2023/06/25 04:54:30;;;;;;;0.63;0.43;;;20.20;49.40;;;;;;5094607;28;20282;-91
2023/06/25 04:57:04;;;;;;;0.93;0.30;;;20.30;48.50;;;;;;5094640;28;20214;-91
2023/06/25 04:59:35;;;;;;;1.27;0.50;;;20.20;49.00;;;;;;5094639;28;20202;-91
2023/06/25 05:02:07;;;;;;;1.27;0.50;;;20.30;49.90;;;;;;5095813;28;20191;-90
2023/06/25 05:04:39;;;;;;;0.82;0.40;;;20.20;50.40;;;;;;5103815;28;20676;-91
2023/06/25 05:07:11;;;;;;;1.95;0.52;;;20.20;50.30;;;;;;5114741;28;20576;-91
2023/06/25 05:09:44;;;;;;;0.50;0.32;;;20.20;51.00;;;;;;5117336;28;20634;-92
2023/06/25 05:12:18;;;;;;;0.73;0.30;;;20.20;50.90;;;;;;5115847;28;20179;-91
2023/06/25 05:14:50;;;;;;;1.08;0.30;;;20.10;50.80;;;;;;5114557;28;20202;-92
2023/06/25 05:17:21;;;;;;;0.40;0.40;;;20.20;51.10;;;;;;5114467;28;20222;-91
2023/06/25 05:19:52;;;;;;;1.35;0.77;;;20.20;51.50;;;;;;5112701;28;20580;-90
2023/06/25 05:22:24;;;;;;;1.10;0.70;;;20.20;50.60;;;;;;5113914;28;20555;-91
2023/06/25 05:24:56;;;;;;;1.38;0.82;;;20.20;50.80;;;;;;5113760;28;20195;-92
2023/06/25 05:27:31;;;;;;;1.55;0.40;;;20.20;51.80;;;;;;5114760;28;20683;-92
2023/06/25 05:30:03;;;;;;;2.08;0.50;;;20.20;52.20;;;;;;5114575;28;20205;-92
2023/06/25 05:32:34;;;;;;;0.73;0.40;;;20.20;50.00;;;;;;5114104;28;20199;-91
2023/06/25 05:35:05;;;;;;;0.85;0.40;;;20.10;48.80;;;;;;5112905;28;20575;-91
2023/06/25 05:37:36;;;;;;;1.60;0.60;;;20.10;47.70;;;;;;5113681;28;20237;-90
2023/06/25 05:40:09;;;;;;;1.38;0.40;;;20.10;47.70;;;;;;5113716;28;20217;-91
2023/06/25 05:42:44;;;;;;;0.63;0.40;;;20.10;47.50;;;;;;5113503;28;20203;-91
2023/06/25 05:45:15;;;;;;;0.50;0.40;;;20.10;47.30;;;;;;5113903;28;20208;-92
2023/06/25 05:47:46;;;;;;;1.10;0.98;;;20.10;47.00;;;;;;5113483;28;20198;-90
2023/06/25 05:50:16;;;;;;;1.25;0.80;;;20.10;47.20;;;;;;5112617;28;20561;-92
2023/06/25 05:52:48;;;;;;;0.90;0.60;;;20.10;47.80;;;;;;5113901;28;20745;-91
2023/06/25 05:55:20;;;;;;;1.25;0.95;;;20.10;47.60;;;;;;5096609;28;20205;-91
2023/06/25 05:57:55;;;;;;;1.50;1.35;;;20.10;47.20;;;;;;5113455;28;20232;-91
2023/06/25 06:00:26;;;;;;;1.95;1.23;;;20.20;47.90;;;;;;5096117;28;20200;-92
2023/06/25 06:02:57;;;;;;;2.75;1.92;;;20.10;47.60;;;;;;5114147;28;20205;-92
2023/06/25 06:05:27;;;;;;;1.35;1.05;;;20.20;47.50;;;;;;5110651;28;20195;-89
2023/06/25 06:07:59;;;;;;;2.35;1.00;;;20.20;47.10;;;;;;5109627;28;20274;-92
2023/06/25 06:10:30;;;;;;;2.05;0.80;;;20.30;47.50;;;;;;5095765;28;20198;-92
2023/06/25 06:13:05;;;;;;;1.75;0.88;;;20.10;46.80;;;;;;5113885;28;20225;-92
2023/06/25 06:15:37;;;;;;;0.77;0.55;;;20.10;45.90;;;;;;5116899;28;20193;-91
2023/06/25 06:18:09;;;;;;;2.60;0.60;;;19.90;45.90;;;;;;5112592;28;20228;-91
2023/06/25 06:20:39;;;;;;;2.78;1.23;;;19.80;45.30;;;;;;5118501;28;20195;-92
2023/06/25 06:23:10;;;;;;;5.25;1.90;;;19.80;45.80;;;;;;5093625;28;20204;-92
2023/06/25 06:25:42;;;;;;;6.07;3.78;;;19.90;46.50;;;;;;5101584;28;20195;-92
2023/06/25 06:28:17;;;;;;;1.55;0.80;;;20.00;46.50;;;;;;5096109;28;20201;-91
2023/06/25 06:30:49;;;;;;;1.08;0.88;;;20.00;45.30;;;;;;5112048;28;20202;-92
2023/06/25 06:33:20;;;;;;;0.90;0.40;;;19.80;45.30;;;;;;5113198;28;20210;-92
2023/06/25 06:35:52;;;;;;;1.02;0.70;;;19.70;45.70;;;;;;5112177;28;20202;-92
2023/06/25 06:38:22;;;;;;;0.93;0.70;;;19.60;46.30;;;;;;5111760;28;20248;-92
2023/06/25 06:40:54;;;;;;;1.25;0.50;;;19.60;47.00;;;;;;5120199;28;20226;-91
2023/06/25 06:43:30;;;;;;;2.08;0.70;;;19.50;47.10;;;;;;5110816;28;20206;-92
2023/06/25 06:46:02;;;;;;;3.13;0.98;;;19.40;47.80;;;;;;5113061;28;20197;-91
2023/06/25 06:48:34;;;;;;;1.25;0.80;;;19.30;48.30;;;;;;5113294;28;20198;-91
2023/06/25 06:51:06;;;;;;;1.15;0.77;;;19.30;47.80;;;;;;5113040;28;20198;-92
2023/06/25 06:53:37;;;;;;;1.00;0.60;;;19.20;48.00;;;;;;5113077;28;20203;-90
2023/06/25 06:56:10;;;;;;;2.03;0.95;;;19.10;48.30;;;;;;5093234;28;20213;-92
2023/06/25 06:58:46;;;;;;;1.25;0.90;;;19.00;48.90;;;;;;5093483;28;20218;-89
2023/06/25 07:01:18;;;;;;;2.17;0.73;;;19.00;49.10;;;;;;5094099;28;20638;-90
2023/06/25 07:03:50;;;;;;;2.17;0.80;;;18.90;48.70;;;;;;5092510;28;20191;-91
2023/06/25 07:06:22;;;;;;;0.98;0.88;;;18.80;48.00;;;;;;5103872;28;20206;-91
2023/06/25 07:08:54;;;;;;;3.60;1.20;;;18.70;47.90;;;;;;5095164;28;20224;-90
2023/06/25 07:11:54;;;;;;;1.52;1.10;;;18.60;48.00;;;;;;5113749;28;20195;-93
2023/06/25 07:14:27;;;;;;;2.78;1.10;;;18.60;48.40;;;;;;5097853;28;20676;-91
2023/06/25 07:17:01;;;;;;;0.98;0.70;;;18.50;48.00;;;;;;5095438;28;20210;-90
2023/06/25 07:19:34;;;;;;;3.15;2.42;;;18.60;48.50;;;;;;5112110;28;20225;-92
2023/06/25 07:22:05;;;;;;;2.20;1.00;;;18.50;48.40;;;;;;5113044;28;20202;-92
2023/06/25 07:24:35;;;;;;;1.25;0.70;;;18.50;49.10;;;;;;5093031;28;20202;-92
2023/06/25 07:27:08;;;;;;;1.65;0.90;;;18.40;48.70;;;;;;5110431;28;20213;-91
2023/06/25 07:29:42;;;;;;;18.23;9.07;;;18.40;48.30;;;;;;5111527;28;20677;-92
2023/06/25 07:32:13;;;;;;;14.85;6.72;;;18.30;48.40;;;;;;5113353;28;20285;-92
2023/06/25 07:34:45;;;;;;;6.13;4.00;;;18.30;48.70;;;;;;5112993;28;20704;-91
2023/06/25 07:37:19;;;;;;;3.50;2.00;;;18.20;49.20;;;;;;5113173;28;20202;-90
2023/06/25 07:39:50;;;;;;;1.48;1.10;;;18.10;48.90;;;;;;5113052;28;20206;-92
2023/06/25 07:42:22;;;;;;;2.92;1.10;;;18.10;49.20;;;;;;5091527;28;20235;-92
2023/06/25 07:44:58;;;;;;;3.22;1.00;;;18.10;49.60;;;;;;5092588;28;20282;-92
2023/06/25 07:47:29;;;;;;;1.00;0.80;;;18.10;49.30;;;;;;5092101;28;20199;-92
2023/06/25 07:50:00;;;;;;;17.08;12.68;;;18.10;49.50;;;;;;5093524;28;20545;-92
2023/06/25 07:52:31;;;;;;;12.55;7.40;;;18.10;50.00;;;;;;5094735;28;20233;-92
2023/06/25 07:55:02;;;;;;;6.90;3.95;;;18.00;50.50;;;;;;5100027;28;20263;-92
2023/06/25 07:57:34;;;;;;;2.67;1.75;;;17.90;51.50;;;;;;5101564;28;20203;-92
2023/06/25 08:00:08;;;;;;;3.33;1.38;;;17.80;51.90;;;;;;5096380;28;20207;-93
2023/06/25 08:02:41;;;;;;;2.80;2.35;;;17.80;51.70;;;;;;5096335;28;20197;-90
2023/06/25 08:05:12;;;;;;;3.50;3.03;;;17.80;52.30;;;;;;5093453;28;20195;-91
2023/06/25 08:07:43;;;;;;;2.55;1.88;;;17.70;53.20;;;;;;5076255;28;20211;-91
2023/06/25 08:10:14;;;;;;;3.22;1.25;;;17.70;53.30;;;;;;5075616;28;20200;-91
2023/06/25 08:12:46;;;;;;;1.52;1.40;;;17.70;52.30;;;;;;5075516;28;20207;-90
2023/06/25 08:15:20;;;;;;;4.25;3.15;;;17.60;52.30;;;;;;5094706;28;20203;-92
2023/06/25 08:17:52;;;;;;;2.25;1.50;;;17.60;52.00;;;;;;5096109;28;20333;-91
2023/06/25 08:20:24;;;;;;;1.75;1.05;;;17.60;51.50;;;;;;5094428;28;20202;-91
2023/06/25 08:22:56;;;;;;;0.75;0.73;;;17.60;51.50;;;;;;5095636;28;20205;-91
2023/06/25 08:25:31;;;;;;;2.05;0.90;;;17.60;51.30;;;;;;5095459;28;20207;-90
2023/06/25 08:28:02;;;;;;;3.35;1.55;;;17.50;51.60;;;;;;5094056;28;20229;-90
2023/06/25 08:30:37;;;;;;;2.40;1.30;;;17.50;51.60;;;;;;5095914;28;20211;-90
2023/06/25 08:33:08;;;;;;;0.80;0.68;;;17.50;52.10;;;;;;5096514;28;20301;-91
2023/06/25 08:35:38;;;;;;;1.13;0.68;;;17.50;52.70;;;;;;5095584;28;20222;-92
2023/06/25 08:38:10;;;;;;;1.25;0.80;;;17.50;53.10;;;;;;5114783;28;20203;-90
2023/06/25 08:40:47;;;;;;;1.40;1.00;;;17.40;52.90;;;;;;5111173;28;20227;-89
2023/06/25 08:43:19;;;;;;;1.65;1.02;;;17.50;52.60;;;;;;5116660;28;20205;-90
2023/06/25 08:45:54;;;;;;;2.25;0.90;;;17.30;51.80;;;;;;5119137;28;20203;-89
2023/06/25 08:48:28;;;;;;;2.47;1.50;;;17.30;51.70;;;;;;5133313;28;20200;-89
2023/06/25 08:51:06;;;;;;;1.13;1.00;;;17.30;52.40;;;;;;5116656;28;20191;-90
2023/06/25 08:53:40;;;;;;;2.67;1.08;;;17.30;52.80;;;;;;5114313;28;20293;-90
2023/06/25 08:56:13;;;;;;;2.00;0.60;;;17.20;53.10;;;;;;5098602;28;20251;-90
2023/06/25 08:58:44;;;;;;;1.10;0.80;;;17.20;53.00;;;;;;5115352;28;20227;-90
2023/06/25 09:01:18;;;;;;;1.17;1.00;;;17.20;53.50;;;;;;5115319;28;20195;-90
2023/06/25 09:03:50;;;;;;;0.82;0.70;;;17.20;54.30;;;;;;5115127;28;20205;-88
2023/06/25 09:06:22;;;;;;;0.88;0.70;;;17.20;53.50;;;;;;5097577;28;20205;-89
2023/06/25 09:08:54;;;;;;;1.15;0.93;;;17.20;54.10;;;;;;5112548;28;20645;-91
2023/06/25 09:11:24;;;;;;;1.33;0.80;;;17.00;55.00;;;;;;5114495;28;20206;-90
2023/06/25 09:13:59;;;;;;;2.30;0.80;;;17.10;54.80;;;;;;5120441;28;20209;-89
2023/06/25 09:16:32;;;;;;;1.40;1.10;;;17.00;55.00;;;;;;5118126;28;20186;-89
2023/06/25 09:19:08;;;;;;;2.25;1.13;;;16.90;55.10;;;;;;5116762;28;20222;-89
2023/06/25 09:21:43;;;;;;;2.17;1.10;;;16.90;55.30;;;;;;5114755;28;20233;-90
2023/06/25 09:24:18;;;;;;;0.98;0.80;;;16.90;56.20;;;;;;5114114;28;20247;-90
2023/06/25 09:26:51;;;;;;;0.90;0.88;;;16.90;56.60;;;;;;5113590;28;20190;-91
2023/06/25 09:29:24;;;;;;;1.45;1.20;;;16.80;57.50;;;;;;5114309;28;20206;-90
2023/06/25 09:31:58;;;;;;;2.20;1.90;;;16.80;57.90;;;;;;5114071;28;20195;-90
2023/06/25 09:34:29;;;;;;;3.40;2.05;;;16.80;58.20;;;;;;5114347;28;20644;-89
2023/06/25 09:37:00;;;;;;;2.45;2.08;;;16.70;57.80;;;;;;5114582;28;20653;-90
2023/06/25 09:39:32;;;;;;;4.47;2.80;;;16.70;57.80;;;;;;5113931;28;20269;-87
2023/06/25 09:42:03;;;;;;;3.35;2.20;;;16.60;57.40;;;;;;5114052;28;20784;-90
2023/06/25 09:44:37;;;;;;;3.30;2.95;;;16.50;58.10;;;;;;5101019;28;20225;-90
2023/06/25 09:47:17;;;;;;;14.07;12.68;;;16.40;58.70;;;;;;5093471;28;20203;-90
2023/06/25 09:49:49;;;;;;;16.63;14.93;;;16.40;59.20;;;;;;5109218;28;20198;-91
2023/06/25 09:52:26;;;;;;;7.90;5.22;;;16.30;59.70;;;;;;5114176;28;20189;-90
2023/06/25 09:54:57;;;;;;;6.78;5.78;;;16.30;58.50;;;;;;5114742;28;20687;-90
2023/06/25 09:57:31;;;;;;;8.45;7.20;;;16.30;58.50;;;;;;5114341;28;20210;-90
2023/06/25 10:00:04;;;;;;;15.48;13.07;;;16.20;59.20;;;;;;5112916;28;20224;-90
2023/06/25 10:02:37;;;;;;;10.90;8.60;;;16.10;58.80;;;;;;5113917;28;20201;-91
2023/06/25 10:05:08;;;;;;;10.68;8.18;;;16.10;59.10;;;;;;5113740;28;20199;-89
2023/06/25 10:07:40;;;;;;;4.75;2.90;;;16.00;58.20;;;;;;5113942;28;20657;-89
2023/06/25 10:10:21;;;;;;;5.68;4.60;;;16.00;58.70;;;;;;5113381;28;20676;-89
2023/06/25 10:12:53;;;;;;;4.10;2.67;;;16.00;58.50;;;;;;5113245;28;20199;-89
2023/06/25 10:15:34;;;;;;;1.35;1.10;;;16.00;59.20;;;;;;5113007;28;20210;-90
2023/06/25 10:18:10;;;;;;;1.33;1.10;;;15.90;59.70;;;;;;5113394;28;20255;-90
2023/06/25 10:20:46;;;;;;;5.18;3.63;;;15.90;60.40;;;;;;5109145;28;20653;-89
2023/06/25 10:23:23;;;;;;;3.03;2.72;;;15.90;61.10;;;;;;5093413;28;20187;-89
2023/06/25 10:26:00;;;;;;;3.58;2.10;;;15.90;61.90;;;;;;5095367;28;20199;-91
2023/06/25 10:28:34;;;;;;;5.10;4.00;;;15.80;63.30;;;;;;5096866;28;20676;-88
2023/06/25 10:31:15;;;;;;;3.47;2.92;;;15.80;63.00;;;;;;5114509;28;20202;-88
2023/06/25 10:33:51;;;;;;;19.90;16.45;;;15.80;62.80;;;;;;5116514;28;20209;-89
2023/06/25 10:36:29;;;;;;;9.18;7.57;;;15.70;62.00;;;;;;5113235;28;20217;-89
2023/06/25 10:39:01;;;;;;;4.60;4.00;;;15.80;62.10;;;;;;5115253;28;20222;-89
2023/06/25 10:41:36;;;;;;;3.40;1.80;;;15.70;62.00;;;;;;5112570;28;20265;-89
2023/06/25 10:44:08;;;;;;;2.92;2.30;;;15.80;61.50;;;;;;5115107;28;20202;-90
2023/06/25 10:46:38;;;;;;;3.42;2.78;;;15.70;61.10;;;;;;5115470;28;20201;-89
2023/06/25 10:49:13;;;;;;;3.03;2.40;;;15.70;62.30;;;;;;5118165;28;20206;-91
2023/06/25 10:51:45;;;;;;;3.47;2.08;;;15.70;62.40;;;;;;5126506;28;20182;-90
2023/06/25 10:54:17;;;;;;;2.28;1.65;;;15.70;62.70;;;;;;5136484;28;20673;-90
2023/06/25 10:56:49;;;;;;;3.15;1.73;;;15.70;63.90;;;;;;5130076;28;20189;-89
2023/06/25 10:59:26;;;;;;;3.50;3.20;;;15.70;65.20;;;;;;5095463;28;20302;-90
2023/06/25 11:02:00;;;;;;;3.88;2.72;;;15.70;64.50;;;;;;5098646;28;20203;-90
2023/06/25 11:04:34;;;;;;;2.78;2.17;;;15.60;65.90;;;;;;5110920;28;20201;-91
2023/06/25 11:07:06;;;;;;;2.50;1.92;;;15.60;66.30;;;;;;5118067;28;20212;-89
2023/06/25 11:09:38;;;;;;;2.63;1.70;;;15.60;66.60;;;;;;5118402;28;20579;-90
2023/06/25 11:12:10;;;;;;;1.30;1.10;;;15.60;67.70;;;;;;5101984;28;20251;-89
2023/06/25 11:14:41;;;;;;;1.08;0.90;;;15.60;67.90;;;;;;5115223;28;20198;-91
2023/06/25 11:17:12;;;;;;;1.23;0.93;;;15.50;68.10;;;;;;5118408;28;20218;-90
2023/06/25 11:19:53;;;;;;;1.73;1.13;;;15.50;67.90;;;;;;5114938;28;20596;-90
2023/06/25 11:22:26;;;;;;;2.28;1.50;;;15.50;68.00;;;;;;5120464;28;20237;-90
2023/06/25 11:24:57;;;;;;;1.83;1.30;;;15.40;67.10;;;;;;5119537;28;20206;-91
2023/06/25 11:27:29;;;;;;;1.70;1.50;;;15.30;68.10;;;;;;5119697;28;20205;-92
2023/06/25 11:30:01;;;;;;;3.80;2.25;;;15.30;66.70;;;;;;5118578;28;20209;-89
2023/06/25 11:32:33;;;;;;;1.77;1.40;;;15.30;69.00;;;;;;5119330;28;20195;-89
2023/06/25 11:35:13;;;;;;;1.70;1.20;;;15.20;67.50;;;;;;5100150;28;20195;-90
2023/06/25 11:37:48;;;;;;;1.63;0.90;;;15.30;66.60;;;;;;5102925;28;20199;-90
2023/06/25 11:40:29;;;;;;;1.00;0.70;;;15.20;60.80;;;;;;5118699;28;20741;-90
2023/06/25 11:43:00;;;;;;;1.67;0.80;;;15.20;61.10;;;;;;5119517;28;20250;-90
2023/06/25 11:45:44;;;;;;;2.88;1.60;;;15.20;61.50;;;;;;5117460;28;20194;-89
2023/06/25 11:48:20;;;;;;;1.80;1.42;;;15.10;62.30;;;;;;5117521;28;20201;-89
2023/06/25 11:50:55;;;;;;;2.08;1.20;;;15.10;62.80;;;;;;5118954;28;20273;-90
2023/06/25 11:53:27;;;;;;;2.47;1.65;;;15.10;64.70;;;;;;5118420;28;20288;-90
2023/06/25 11:55:59;;;;;;;2.20;1.20;;;15.10;64.20;;;;;;5118855;28;20194;-89
2023/06/25 11:58:31;;;;;;;1.40;0.93;;;15.10;65.60;;;;;;5117980;28;20289;-90
2023/06/25 12:01:03;;;;;;;1.05;0.88;;;15.10;66.30;;;;;;5117680;28;20222;-91
2023/06/25 12:03:35;;;;;;;1.20;0.75;;;15.20;66.90;;;;;;5117064;28;20195;-90
2023/06/25 12:06:09;;;;;;;1.15;0.75;;;15.20;67.80;;;;;;5116218;28;20199;-89
2023/06/25 12:08:40;;;;;;;2.42;0.80;;;15.10;67.20;;;;;;5117169;28;20202;-89
2023/06/25 12:11:13;;;;;;;1.35;0.73;;;15.10;67.60;;;;;;5115185;28;20649;-89
2023/06/25 12:13:46;;;;;;;1.90;0.70;;;14.90;66.60;;;;;;5097560;28;20202;-89
2023/06/25 12:16:18;;;;;;;0.77;0.60;;;14.90;66.60;;;;;;5115742;28;20234;-89
2023/06/25 12:18:50;;;;;;;1.48;0.90;;;14.90;66.70;;;;;;5114815;28;20194;-89
2023/06/25 12:21:25;;;;;;;2.78;0.70;;;14.80;63.40;;;;;;5115268;28;20574;-88
2023/06/25 12:23:57;;;;;;;1.30;0.70;;;14.80;63.70;;;;;;5115838;28;20637;-89
2023/06/25 12:26:28;;;;;;;0.80;0.60;;;14.80;64.50;;;;;;5115380;28;20267;-89
2023/06/25 12:28:59;;;;;;;1.08;0.80;;;14.80;64.80;;;;;;5114381;28;20202;-89
2023/06/25 12:31:31;;;;;;;1.30;0.70;;;14.80;64.00;;;;;;5115486;28;20194;-89
2023/06/25 12:34:02;;;;;;;0.65;0.65;;;14.80;66.20;;;;;;5114751;28;20190;-89
2023/06/25 12:36:37;;;;;;;1.20;0.60;;;14.80;63.50;;;;;;5114673;28;20688;-89
2023/06/25 12:39:09;;;;;;;1.00;0.65;;;14.90;61.90;;;;;;5114221;28;20210;-89
2023/06/25 12:41:43;;;;;;;1.30;0.70;;;14.80;61.40;;;;;;5114339;28;20232;-89
2023/06/25 12:44:15;;;;;;;1.02;0.70;;;14.80;60.90;;;;;;5113238;28;20386;-89
2023/06/25 12:46:45;;;;;;;0.40;0.40;;;14.80;61.50;;;;;;5114900;28;20233;-89
2023/06/25 12:49:16;;;;;;;1.02;0.60;;;14.90;58.30;;;;;;5114997;28;20208;-88
2023/06/25 12:51:51;;;;;;;1.77;0.50;;;14.90;57.90;;;;;;5080259;28;20201;-89
2023/06/25 12:54:23;;;;;;;1.20;0.50;;;14.90;57.40;;;;;;5114626;28;20201;-90
2023/06/25 12:56:54;;;;;;;1.73;0.50;;;15.00;56.80;;;;;;5133018;28;20201;-90
2023/06/25 12:59:26;;;;;;;0.98;0.40;;;14.90;55.80;;;;;;5102238;28;20223;-90
2023/06/25 13:02:00;;;;;;;0.52;0.32;;;15.00;56.60;;;;;;5115283;28;20202;-90
2023/06/25 13:04:33;;;;;;;0.40;0.30;;;15.00;56.10;;;;;;5096182;28;20246;-91
2023/06/25 13:07:08;;;;;;;0.40;0.40;;;15.00;55.10;;;;;;5109148;28;20206;-91
2023/06/25 13:09:40;;;;;;;1.60;0.50;;;15.10;55.20;;;;;;5110101;28;20203;-90
2023/06/25 13:12:14;;;;;;;3.05;0.63;;;15.10;55.30;;;;;;5115254;28;20205;-89
2023/06/25 13:14:46;;;;;;;0.65;0.38;;;15.10;55.20;;;;;;5117881;28;20198;-90